Mekkah, Arab Saudi

09:15 AM AST on Agustus 21, 2014 (GMT +0300)
Makkah | Change Station
CLOSE
Current Station
Airport
Location: Makkah,
Elevation: 1211 ft
Nearby Weather Stations

Elev 1211 ft 21.44 °N, 40.00 °E | Updated 15 minutes ago

Clear
Cerah
95 °F
Feels Like 110 °F
N
2
Angin Variable Angin from Dari Selatan ke Tenggara

Siang Ini
High -- | Low -- °F
--% Chance of Precip.
Yesterday
High -- | Low -- °F
Precip. -- Inch
6:01 AM 6:46 PM
Waning Crescent, 16% visible
Tekanan 29.68 Inch
Jarak Pandang -9999.0 Mil
Awan
Ideks Panas 110 °F
Titik Embun 77 °F
Kelembaban 56%
Rainfall 0.00 Inch
Snow Depth Not available.
UV Not available.
Pollen Not available.
Air Quality Not available.
Flu Activity Not available.
METAR OEMK 210600Z 15002KT CAVOK 35/25 Q1005

More Conditions Fewer Conditions

Tekanan 29.68 Inch
Jarak Pandang -9999.0 Mil
Awan
Ideks Panas 110 °F
Titik Embun 77 °F
Kelembaban 56%
Rainfall 0.00 Inch
Snow Depth Not available.
UV Not available.
Pollen Not available.
Air Quality Not available.
Flu Activity Not available.
METAR OEMK 210600Z 15002KT CAVOK 35/25 Q1005

More Conditions Fewer Conditions

10-Day Weather Forecast

Almanac

Astronomi

Aug. 21, 2014 Rise Set
Actual Time 6:01 AM AST 6:46 PM AST
Civil Twilight 5:38 AM AST 7:09 PM AST
Nautical Twilight 5:11 AM AST 7:36 PM AST
Astronomical Twilight 4:43 AM AST 8:04 PM AST
Moon 2:25 AM AST 3:49 PM AST
Length Of Visible Light 13h 31m
Lama Satu Hari
12h 45m
Tomorrow will be 1m 8s shorter.
Waning Crescent, 16% of the Moon is Illuminated
Siang Ini
Waning Crescent
Aug 25
New
Sep 2
Triwulan Pertama
Sep 8
Bulan Purnama
Sep 15
Kuartil Terakhir

Yesterday's Extremes

Country Highs Country Lows

Community

WunderPhotos

Upload Photos

1,745,858 photos uploaded!

Nearby

Snow Depth

Not available.

Earthquake Activity

City Distance Mag. Time & Date
No recent earthquake activity has been reported nearby.
Minimum magnitude displayed is 2.5.

Coastal Water Temperatures

Lokasi Temperatur
No Stations Reporting

Nearby Weather Stations